Flight Track Log - Related Links

Times and Time Zones

All times are in EDT time to prevent confusion due to time zone crossing. See the UAL4434 flight status page for this flight to view local times or setup timezone preferences in your user account.


Time Position Orientation Groundspeed Altitude Reporting Facility
EDT Latitude Longitude Course Direction KTS MPH feet Rate Location/Type
Fri 07:33:50 AM 39.2833 -94.7333 84° East 130 150 1,700  Level Kansas City TRACON
Fri 07:34:38 AM 39.2500 -94.7167 159° South 176 203 3,100 1,737 Climbing Kansas City TRACON
Fri 07:35:06 AM 39.2331 -94.7169 181° South 184 212 3,900 2,157 Climbing Kansas City Center
Fri 07:36:00 AM 39.3337 -94.3261 80° East  Level FlightAware Approximate
Fri 07:36:07 AM 39.2039 -94.6558 122° Southeast 254 292 6,300  Level Kansas City Center
Fri 07:37:00 AM 39.3537 -94.1794 80° East  Level FlightAware Approximate
Fri 07:37:06 AM 39.2508 -94.5661 56° Northeast 272 313 9,100  Level Kansas City Center
Fri 07:38:00 AM 39.3723 -94.0325 82° East  Level FlightAware Approximate
Fri 07:38:07 AM 39.2961 -94.4856 54° Northeast 287 330 10,800  Level Kansas City Center
Fri 07:39:00 AM 39.3875 -93.8800 84° East  Level FlightAware Approximate
Fri 07:39:08 AM 39.3428 -94.3892 58° Northeast 329 379 12,100  Level Kansas City Center
Fri 07:40:12 AM 39.3578 -94.2442 82° East 363 418 13,700 1,500 Climbing Kansas City Center
Fri 07:41:12 AM 39.3697 -94.1158 83° East 376 433 15,200 1,475 Climbing Kansas City Center
Fri 07:42:10 AM 39.3825 -93.9828 83° East 387 445 16,600 1,462 Climbing Kansas City Center
Fri 07:43:11 AM 39.4019 -93.8256 81° East 397 457 18,100 1,377 Climbing Kansas City Center
Fri 07:44:12 AM 39.4183 -93.7014 80° East 407 468 19,400 1,355 Climbing Kansas City Center
Fri 07:45:15 AM 39.4358 -93.5567 81° East 411 473 20,900 1,597 Climbing Kansas City Center
Fri 07:46:16 AM 39.4567 -93.3781 81° East 420 483 22,700 1,600 Climbing Kansas City Center
Fri 07:47:15 AM 39.4753 -93.2322 81° East 420 483 24,100 1,438 Climbing Kansas City Center
Fri 07:48:17 AM 39.4936 -93.0842 81° East 421 484 25,600 1,463 Climbing Kansas City Center
Fri 07:49:18 AM 39.5094 -92.9303 82° East 430 495 27,100 1,488 Climbing Kansas City Center
Fri 07:50:18 AM 39.5275 -92.7797 81° East 430 495 28,600 1,426 Climbing Kansas City Center
Fri 07:51:20 AM 39.5442 -92.6344 81° East 421 484 30,000 1,230 Climbing Kansas City Center
Fri 07:52:20 AM 39.5600 -92.4861 82° East 420 483 31,100 942 Climbing Kansas City Center
Fri 07:53:21 AM 39.5772 -92.3369 81° East 421 484 31,900 900 Climbing Kansas City Center
Fri 07:54:20 AM 39.5969 -92.1514 82° East 432 497 32,900 984 Climbing Kansas City Center
Fri 07:55:23 AM 39.6139 -91.9939 82° East 441 507 33,900 919 Climbing Kansas City Center
Fri 07:56:24 AM 39.6311 -91.8361 82° East 446 513 34,800 545 Climbing Kansas City Center
Fri 07:57:24 AM 39.6481 -91.6783 82° East 446 513 35,000 98 Climbing Kansas City Center
Fri 07:58:26 AM 39.6639 -91.5133 83° East 457 526 35,000  Level Kansas City Center
Fri 07:59:26 AM 39.6822 -91.3392 82° East 479 551 35,000  Level Kansas City Center
Fri 08:00:27 AM 39.6997 -91.1675 82° East 498 573 35,000  Level Kansas City Center
Fri 08:01:26 AM 39.7225 -90.9394 83° East 520 598 35,000 98 Level Kansas City Center
Fri 08:02:29 AM 39.7408 -90.7511 83° East 526 605 35,200 532 Climbing Kansas City Center
Fri 08:03:30 AM 39.7567 -90.5783 83° East 521 600 36,100 885 Climbing Kansas City Center
Fri 08:04:31 AM 39.7742 -90.3992 83° East 510 587 37,000 443 Climbing Kansas City Center
Fri 08:05:32 AM 39.7908 -90.2192 83° East 505 581 37,000  Level Kansas City Center
Fri 08:06:33 AM 39.8075 -90.0381 83° East 506 582 37,000  Level Kansas City Center
Fri 08:07:34 AM 39.8242 -89.8519 83° East 514 592 37,000  Level Kansas City Center
Fri 08:08:33 AM 39.8383 -89.6625 84° East 522 601 37,000  Level Kansas City Center
Fri 08:09:36 AM 39.8403 -89.4706 89° East 530 610 37,000  Level Kansas City Center
Fri 08:10:36 AM 39.8411 -89.2411 90° East 531 611 37,000  Level Kansas City Center
Fri 08:11:37 AM 39.8408 -89.0483 90° East 533 613 37,000  Level Kansas City Center
Fri 08:12:38 AM 39.8417 -88.8567 90° East 534 615 37,000  Level Kansas City Center
Fri 08:13:40 AM 39.8411 -88.6675 90° East 528 608 37,000  Level Kansas City Center
Fri 08:14:41 AM 39.8422 -88.4789 89° East 524 603 37,000  Level Kansas City Center
Fri 08:15:41 AM 39.8425 -88.2908 90° East 522 601 37,000  Level Kansas City Center
Fri 08:16:36 AM 39.8397 -88.1247 91° East 518 596 37,000  Level Indianapolis Center
Fri 08:17:37 AM 39.8369 -87.9072 91° East 515 593 37,000  Level Indianapolis Center
Fri 08:18:39 AM 39.8356 -87.7206 90° East 513 590 37,000  Level Indianapolis Center
Fri 08:19:40 AM 39.8344 -87.5347 90° East 512 589 37,000  Level Indianapolis Center
Fri 08:20:42 AM 39.8317 -87.3503 91° East 509 586 37,000  Level Indianapolis Center
Fri 08:21:44 AM 39.8292 -87.1647 91° East 509 586 37,000  Level Indianapolis Center
Fri 08:22:45 AM 39.8258 -86.9803 91° East 507 583 37,000  Level Indianapolis Center
Fri 08:23:47 AM 39.8228 -86.7967 91° East 507 583 37,000  Level Indianapolis Center
Fri 08:24:49 AM 39.8192 -86.6128 91° East 505 581 37,000  Level Indianapolis Center
Fri 08:25:50 AM 39.8158 -86.4269 91° East 507 583 37,000  Level Indianapolis Center
Fri 08:26:52 AM 39.8400 -86.2417 80° East 503 579 37,000  Level Indianapolis Center
Fri 08:27:53 AM 39.8789 -86.0656 74° East 495 570 37,000  Level Indianapolis Center
Fri 08:28:55 AM 39.9156 -85.8917 75° East 494 568 37,000  Level Indianapolis Center
Fri 08:29:56 AM 39.9525 -85.7169 75° East 496 571 37,000  Level Indianapolis Center
Fri 08:30:58 AM 39.9944 -85.5136 75° East 495 570 37,000  Level Indianapolis Center
Fri 08:32:00 AM 40.0300 -85.3392 75° East 495 570 37,000  Level Indianapolis Center
Fri 08:33:01 AM 40.0661 -85.1661 75° East 492 566 37,000  Level Indianapolis Center
Fri 08:34:03 AM 40.1019 -84.9919 75° East 495 570 37,000  Level Indianapolis Center
Fri 08:35:04 AM 40.1364 -84.8106 76° East 489 563 37,000  Level Indianapolis Center
Fri 08:36:06 AM 40.1722 -84.6367 75° East 490 564 37,000  Level Indianapolis Center
Fri 08:37:19 AM 40.2119 -84.4344 76° East 488 562 37,000  Level Indianapolis Center
Fri 08:38:21 AM 40.2464 -84.2594 75° East 490 564 37,000  Level Indianapolis Center
Fri 08:39:23 AM 40.2797 -84.0864 76° East 486 559 37,000  Level Indianapolis Center
Fri 08:40:24 AM 40.3397 -83.9306 63° Northeast 473 544 37,000  Level Indianapolis Center
Fri 08:41:26 AM 40.4083 -83.7819 59° Northeast 471 542 37,000  Level Indianapolis Center
Fri 08:42:27 AM 40.4758 -83.6331 59° Northeast 470 541 37,000  Level Indianapolis Center
Fri 08:43:29 AM 40.5453 -83.4831 59° Northeast 474 545 37,000  Level Indianapolis Center
Fri 08:44:31 AM 40.6236 -83.3069 60° Northeast 474 545 37,000  Level Indianapolis Center
Fri 08:44:57 AM 40.6464 -83.2594 58° Northeast 465 535 37,000  Level Cleveland Center
Fri 08:45:57 AM 40.7144 -83.1089 59° Northeast 465 535 37,000  Level Cleveland Center
Fri 08:46:57 AM 40.7869 -82.9469 59° Northeast 465 535 37,000  Level Cleveland Center
Fri 08:47:57 AM 40.8417 -82.8144 61° Northeast 459 528 37,000  Level Cleveland Center
Fri 08:48:57 AM 40.9111 -82.6658 58° Northeast 459 528 37,000  Level Cleveland Center
Fri 08:49:57 AM 40.9828 -82.5031 60° Northeast 459 528 37,000  Level Cleveland Center
Fri 08:50:57 AM 41.0458 -82.3478 62° Northeast 459 528 37,000  Level Cleveland Center
Fri 08:51:57 AM 41.0817 -82.1781 74° East 470 541 37,000  Level Cleveland Center
Fri 08:52:57 AM 41.1172 -82.0025 75° East 485 558 37,000  Level Cleveland Center
Fri 08:53:57 AM 41.1525 -81.8461 73° East 490 564 37,000  Level Cleveland Center
Fri 08:54:57 AM 41.1897 -81.6703 74° East 484 557 37,000  Level Cleveland Center
Fri 08:55:57 AM 41.2225 -81.4969 76° East 484 557 37,000  Level Cleveland Center
Fri 08:56:57 AM 41.2594 -81.3067 75° East 484 557 37,000  Level Cleveland Center
Fri 08:57:57 AM 41.2936 -81.1358 75° East 484 557 37,000  Level Cleveland Center
Fri 08:58:57 AM 41.3278 -80.9619 75° East 479 551 37,000  Level Cleveland Center
Fri 08:59:57 AM 41.3614 -80.7906 75° East 479 551 37,000  Level Cleveland Center
Fri 09:00:57 AM 41.3950 -80.6192 75° East 479 551 37,000  Level Cleveland Center
Fri 09:01:57 AM 41.4283 -80.4447 76° East 473 544 37,000  Level Cleveland Center
Fri 09:02:57 AM 41.4594 -80.2894 75° East 473 544 37,000  Level Cleveland Center
Fri 09:03:57 AM 41.4922 -80.1147 76° East 473 544 37,000  Level Cleveland Center
Fri 09:04:57 AM 41.5267 -79.9286 76° East 473 544 37,000  Level Cleveland Center
Fri 09:05:57 AM 41.5589 -79.7561 76° East 473 544 37,000  Level Cleveland Center
Fri 09:06:57 AM 41.5886 -79.5781 77° East 473 544 37,000  Level Cleveland Center
Fri 09:07:57 AM 41.5869 -79.4006 91° East 468 539 37,000  Level Cleveland Center
Fri 09:08:57 AM 41.5725 -79.2203 96° East 473 544 37,000  Level Cleveland Center
Fri 09:09:57 AM 41.5556 -79.0375 97° East 486 559 37,000 -350 Level Cleveland Center
Fri 09:10:57 AM 41.5383 -78.8578 97° East 486 559 36,300 -900 Descending Cleveland Center
Fri 09:11:57 AM 41.5231 -78.6806 97° East 486 559 35,200 -1,200 Descending Cleveland Center
Fri 09:12:57 AM 41.5075 -78.5036 97° East 479 551 33,900 -1,209 Descending Cleveland Center
Fri 09:14:06 AM 41.4933 -78.3297 96° East 481 554 32,600 -1,228 Descending New York Center
Fri 09:15:04 AM 41.4772 -78.1561 97° East 481 554 31,300 -814 Descending New York Center
Fri 09:16:04 AM 41.4606 -77.9853 97° East 476 548 31,000 -149 Descending New York Center
Fri 09:17:05 AM 41.4442 -77.8092 97° East 471 542 31,000  Level New York Center
Fri 09:18:06 AM 41.4250 -77.6356 98° East 471 542 31,000  Level New York Center
Fri 09:19:06 AM 41.4100 -77.4625 97° East 471 542 31,000  Level New York Center
Fri 09:20:04 AM 41.3892 -77.2722 98° East 471 542 31,000 -661 Level New York Center
Fri 09:21:04 AM 41.3714 -77.1019 98° East 471 542 29,700 -1,488 Descending New York Center
Fri 09:22:05 AM 41.3536 -76.9233 97° East 471 542 28,000 -1,636 Descending New York Center
Fri 09:23:05 AM 41.3292 -76.7497 101° East 471 542 26,400 -1,636 Descending New York Center
Fri 09:24:06 AM 41.2833 -76.5800 110° East 476 548 24,700 -1,636 Descending New York Center
Fri 09:25:06 AM 41.2375 -76.4078 109° East 482 555 23,100 -1,815 Descending New York Center
Fri 09:26:05 AM 41.1969 -76.2556 109° East 493 567 21,100 -2,500 Descending New York Center
Fri 09:27:06 AM 41.1506 -76.0808 109° East 468 539 18,100 -2,319 Descending New York Center
Fri 09:28:04 AM 41.1114 -75.9319 109° East 434 499 16,500 -1,714 Descending New York Center
Fri 09:29:05 AM 41.0772 -75.8053 110° East 411 473 14,700 -1,686 Descending New York Center
Fri 09:30:05 AM 41.0336 -75.6536 111° Southeast 399 459 13,100 -850 Descending New York Center
Fri 09:31:05 AM 40.9956 -75.5161 110° East 399 459 13,000 -700 Descending New York Center
Fri 09:32:05 AM 40.9625 -75.4011 111° Southeast 389 448 11,700 -1,339 Descending New York Center
Fri 09:33:06 AM 40.9294 -75.2836 110° East 359 413 10,300 -1,513 Descending New York Center
Fri 09:34:04 AM 40.8983 -75.1689 110° East 308 354 8,700 -1,450 Descending New York Center
Fri 09:35:06 AM 40.8708 -75.0711 110° East 290 334 7,400 -850 Descending New York Center
Fri 09:36:04 AM 40.8386 -74.9814 115° Southeast 277 319 7,000 -454 Descending New York Center
Fri 09:37:05 AM 40.8083 -74.8972 115° Southeast 266 306 6,500 -492 Descending New York Center
Fri 09:38:06 AM 40.7700 -74.7961 117° Southeast 272 313 6,000 -252 Descending New York Center
Fri 09:39:04 AM 40.7417 -74.7150 115° Southeast 272 313 6,000  Level New York Center
Fri 09:40:05 AM 40.6944 -74.6275 125° Southeast 265 305 6,000  Level New York Center
Fri 09:40:29 AM 40.6667 -74.6000 143° Southeast 267 307 6,000 -538 Level New York TRACON
Fri 09:41:23 AM 40.6167 -74.5500 143° Southeast 264 304 5,300 -526 Descending New York TRACON
Fri 09:42:23 AM 40.5667 -74.4833 135° Southeast 260 299 5,000 -550 Descending New York TRACON
Fri 09:43:23 AM 40.5167 -74.4167 135° Southeast 250 288 4,200 -750 Descending New York TRACON
Fri 09:44:23 AM 40.5000 -74.3333 105° East 221 254 3,500 -632 Descending New York TRACON
Fri 09:45:17 AM 40.5167 -74.2667 72° East 212 244 3,000 -556 Descending New York TRACON

Login

Don't have an account? Register now (free) for customized features, flight alerts, and more!